sensor_id;sensor_type;location;lat;lon;timestamp;P1;durP1;ratioP1;P2;durP2;ratioP2
57790;SDS011;43621;51.798;21.588;2023-05-29T00:03:59;7.90;;;2.60;;
57790;SDS011;43621;51.798;21.588;2023-05-29T00:08:01;6.20;;;2.40;;
57790;SDS011;43621;51.798;21.588;2023-05-29T00:12:03;7.00;;;2.30;;
57790;SDS011;43621;51.798;21.588;2023-05-29T00:16:07;10.70;;;2.00;;
57790;SDS011;43621;51.798;21.588;2023-05-29T00:20:10;3.60;;;1.90;;
57790;SDS011;43621;51.798;21.588;2023-05-29T00:24:14;5.80;;;1.90;;
57790;SDS011;43621;51.798;21.588;2023-05-29T00:28:16;3.50;;;1.80;;
57790;SDS011;43621;51.798;21.588;2023-05-29T00:32:18;4.10;;;1.70;;
57790;SDS011;43621;51.798;21.588;2023-05-29T00:36:20;3.90;;;1.90;;
57790;SDS011;43621;51.798;21.588;2023-05-29T00:40:23;4.10;;;2.00;;
57790;SDS011;43621;51.798;21.588;2023-05-29T00:44:25;5.20;;;1.80;;
57790;SDS011;43621;51.798;21.588;2023-05-29T00:48:27;4.80;;;2.10;;
57790;SDS011;43621;51.798;21.588;2023-05-29T00:52:28;4.60;;;2.30;;
57790;SDS011;43621;51.798;21.588;2023-05-29T00:56:30;5.80;;;1.80;;
57790;SDS011;43621;51.798;21.588;2023-05-29T01:00:32;4.20;;;2.00;;
57790;SDS011;43621;51.798;21.588;2023-05-29T01:04:37;3.20;;;1.90;;
57790;SDS011;43621;51.798;21.588;2023-05-29T01:08:39;3.00;;;2.00;;
57790;SDS011;43621;51.798;21.588;2023-05-29T01:12:53;4.70;;;2.00;;
57790;SDS011;43621;51.798;21.588;2023-05-29T01:25:56;4.00;;;1.80;;
57790;SDS011;43621;51.798;21.588;2023-05-29T01:30:12;7.10;;;1.80;;
57790;SDS011;43621;51.798;21.588;2023-05-29T01:34:16;4.50;;;2.00;;
57790;SDS011;43621;51.798;21.588;2023-05-29T01:38:18;3.70;;;1.50;;
57790;SDS011;43621;51.798;21.588;2023-05-29T01:42:19;7.50;;;2.00;;
57790;SDS011;43621;51.798;21.588;2023-05-29T01:46:22;5.30;;;1.60;;
57790;SDS011;43621;51.798;21.588;2023-05-29T01:50:26;4.20;;;1.90;;
57790;SDS011;43621;51.798;21.588;2023-05-29T01:54:30;6.20;;;1.80;;
57790;SDS011;43621;51.798;21.588;2023-05-29T01:58:32;5.40;;;1.90;;
57790;SDS011;43621;51.798;21.588;2023-05-29T02:02:37;6.00;;;1.80;;
57790;SDS011;43621;51.798;21.588;2023-05-29T02:06:39;3.70;;;2.10;;
57790;SDS011;43621;51.798;21.588;2023-05-29T02:10:42;5.60;;;2.50;;
57790;SDS011;43621;51.798;21.588;2023-05-29T02:14:44;6.50;;;2.30;;
57790;SDS011;43621;51.798;21.588;2023-05-29T02:18:46;3.70;;;2.00;;
57790;SDS011;43621;51.798;21.588;2023-05-29T02:22:48;5.10;;;2.50;;
57790;SDS011;43621;51.798;21.588;2023-05-29T02:26:50;6.20;;;2.10;;
57790;SDS011;43621;51.798;21.588;2023-05-29T02:30:52;3.50;;;1.80;;
57790;SDS011;43621;51.798;21.588;2023-05-29T02:34:54;4.60;;;2.10;;
57790;SDS011;43621;51.798;21.588;2023-05-29T02:38:55;4.90;;;2.20;;
57790;SDS011;43621;51.798;21.588;2023-05-29T02:42:57;6.30;;;2.40;;
57790;SDS011;43621;51.798;21.588;2023-05-29T02:46:59;4.30;;;2.20;;
57790;SDS011;43621;51.798;21.588;2023-05-29T02:51:01;4.00;;;1.90;;
57790;SDS011;43621;51.798;21.588;2023-05-29T02:55:03;5.40;;;2.00;;
57790;SDS011;43621;51.798;21.588;2023-05-29T02:59:07;3.00;;;1.90;;
57790;SDS011;43621;51.798;21.588;2023-05-29T03:03:09;7.80;;;2.20;;
57790;SDS011;43621;51.798;21.588;2023-05-29T03:07:10;5.60;;;1.80;;
57790;SDS011;43621;51.798;21.588;2023-05-29T03:11:14;3.20;;;1.80;;
57790;SDS011;43621;51.798;21.588;2023-05-29T03:15:16;4.60;;;1.80;;
57790;SDS011;43621;51.798;21.588;2023-05-29T03:19:21;4.60;;;2.10;;
57790;SDS011;43621;51.798;21.588;2023-05-29T03:23:23;4.60;;;2.50;;
57790;SDS011;43621;51.798;21.588;2023-05-29T03:27:25;6.70;;;3.00;;
57790;SDS011;43621;51.798;21.588;2023-05-29T03:31:27;4.10;;;2.10;;
57790;SDS011;43621;51.798;21.588;2023-05-29T03:35:29;5.30;;;1.80;;
57790;SDS011;43621;51.798;21.588;2023-05-29T03:39:31;10.90;;;2.60;;
57790;SDS011;43621;51.798;21.588;2023-05-29T03:43:33;6.20;;;2.20;;
57790;SDS011;43621;51.798;21.588;2023-05-29T03:47:35;6.90;;;2.10;;
57790;SDS011;43621;51.798;21.588;2023-05-29T03:51:37;4.70;;;2.40;;
57790;SDS011;43621;51.798;21.588;2023-05-29T03:55:39;4.70;;;2.00;;
57790;SDS011;43621;51.798;21.588;2023-05-29T03:59:41;8.20;;;2.70;;
57790;SDS011;43621;51.798;21.588;2023-05-29T04:03:43;13.40;;;2.30;;
57790;SDS011;43621;51.798;21.588;2023-05-29T04:07:46;8.80;;;2.30;;
57790;SDS011;43621;51.798;21.588;2023-05-29T04:11:48;6.00;;;2.00;;
57790;SDS011;43621;51.798;21.588;2023-05-29T04:15:50;6.00;;;2.30;;
57790;SDS011;43621;51.798;21.588;2023-05-29T04:19:54;4.50;;;2.10;;
57790;SDS011;43621;51.798;21.588;2023-05-29T04:23:56;11.30;;;2.20;;
57790;SDS011;43621;51.798;21.588;2023-05-29T04:27:58;9.30;;;3.00;;
57790;SDS011;43621;51.798;21.588;2023-05-29T04:32:03;5.90;;;2.60;;
57790;SDS011;43621;51.798;21.588;2023-05-29T04:36:05;16.80;;;2.80;;
57790;SDS011;43621;51.798;21.588;2023-05-29T04:40:10;7.80;;;2.10;;
57790;SDS011;43621;51.798;21.588;2023-05-29T04:44:12;6.80;;;2.20;;
57790;SDS011;43621;51.798;21.588;2023-05-29T04:48:14;6.80;;;2.50;;
57790;SDS011;43621;51.798;21.588;2023-05-29T04:52:17;7.40;;;2.30;;
57790;SDS011;43621;51.798;21.588;2023-05-29T04:56:19;9.50;;;2.10;;
57790;SDS011;43621;51.798;21.588;2023-05-29T05:00:21;5.80;;;2.00;;
57790;SDS011;43621;51.798;21.588;2023-05-29T05:04:24;9.50;;;3.10;;
57790;SDS011;43621;51.798;21.588;2023-05-29T05:08:26;9.10;;;2.60;;
57790;SDS011;43621;51.798;21.588;2023-05-29T05:12:27;5.90;;;1.90;;
57790;SDS011;43621;51.798;21.588;2023-05-29T05:16:29;22.60;;;4.50;;
57790;SDS011;43621;51.798;21.588;2023-05-29T05:20:31;9.80;;;2.60;;
57790;SDS011;43621;51.798;21.588;2023-05-29T05:24:33;6.50;;;3.10;;
57790;SDS011;43621;51.798;21.588;2023-05-29T05:28:36;7.00;;;3.00;;
57790;SDS011;43621;51.798;21.588;2023-05-29T05:32:37;12.10;;;3.20;;
57790;SDS011;43621;51.798;21.588;2023-05-29T05:36:39;8.50;;;2.90;;
57790;SDS011;43621;51.798;21.588;2023-05-29T05:40:41;10.70;;;2.70;;
57790;SDS011;43621;51.798;21.588;2023-05-29T05:44:46;10.80;;;3.00;;
57790;SDS011;43621;51.798;21.588;2023-05-29T05:48:47;7.50;;;2.70;;
57790;SDS011;43621;51.798;21.588;2023-05-29T05:52:49;10.40;;;3.50;;
57790;SDS011;43621;51.798;21.588;2023-05-29T05:56:51;10.50;;;3.00;;
57790;SDS011;43621;51.798;21.588;2023-05-29T06:00:53;5.90;;;2.40;;
57790;SDS011;43621;51.798;21.588;2023-05-29T06:04:55;7.30;;;1.80;;
57790;SDS011;43621;51.798;21.588;2023-05-29T06:08:56;9.00;;;2.40;;
57790;SDS011;43621;51.798;21.588;2023-05-29T06:13:00;6.60;;;2.40;;
57790;SDS011;43621;51.798;21.588;2023-05-29T06:17:02;5.40;;;2.00;;
57790;SDS011;43621;51.798;21.588;2023-05-29T06:21:04;5.10;;;2.00;;
57790;SDS011;43621;51.798;21.588;2023-05-29T06:25:08;4.10;;;1.80;;
57790;SDS011;43621;51.798;21.588;2023-05-29T06:29:11;5.40;;;1.60;;
57790;SDS011;43621;51.798;21.588;2023-05-29T06:33:12;2.30;;;1.50;;
57790;SDS011;43621;51.798;21.588;2023-05-29T06:37:14;3.30;;;1.90;;
57790;SDS011;43621;51.798;21.588;2023-05-29T06:41:16;2.20;;;1.50;;
57790;SDS011;43621;51.798;21.588;2023-05-29T06:45:18;8.40;;;2.60;;
57790;SDS011;43621;51.798;21.588;2023-05-29T06:49:20;6.50;;;2.20;;
57790;SDS011;43621;51.798;21.588;2023-05-29T06:53:22;3.80;;;1.60;;
57790;SDS011;43621;51.798;21.588;2023-05-29T06:57:23;3.30;;;1.90;;
57790;SDS011;43621;51.798;21.588;2023-05-29T07:01:25;5.10;;;2.50;;
57790;SDS011;43621;51.798;21.588;2023-05-29T07:05:27;8.00;;;2.40;;
57790;SDS011;43621;51.798;21.588;2023-05-29T07:09:29;7.50;;;2.30;;
57790;SDS011;43621;51.798;21.588;2023-05-29T07:13:31;5.30;;;2.40;;
57790;SDS011;43621;51.798;21.588;2023-05-29T07:17:32;2.70;;;1.60;;
57790;SDS011;43621;51.798;21.588;2023-05-29T07:21:34;4.70;;;1.90;;
57790;SDS011;43621;51.798;21.588;2023-05-29T07:25:37;3.90;;;2.00;;
57790;SDS011;43621;51.798;21.588;2023-05-29T07:29:39;2.20;;;1.30;;
57790;SDS011;43621;51.798;21.588;2023-05-29T07:33:41;7.80;;;1.70;;
57790;SDS011;43621;51.798;21.588;2023-05-29T07:37:43;4.60;;;1.40;;
57790;SDS011;43621;51.798;21.588;2023-05-29T07:41:45;4.20;;;1.60;;
57790;SDS011;43621;51.798;21.588;2023-05-29T07:45:47;2.40;;;1.30;;
57790;SDS011;43621;51.798;21.588;2023-05-29T07:49:48;3.70;;;1.10;;
57790;SDS011;43621;51.798;21.588;2023-05-29T07:53:50;3.90;;;1.60;;
57790;SDS011;43621;51.798;21.588;2023-05-29T07:57:52;4.50;;;1.50;;
57790;SDS011;43621;51.798;21.588;2023-05-29T08:01:54;8.20;;;1.60;;
57790;SDS011;43621;51.798;21.588;2023-05-29T08:05:59;4.90;;;2.20;;
57790;SDS011;43621;51.798;21.588;2023-05-29T08:10:01;6.60;;;1.80;;
57790;SDS011;43621;51.798;21.588;2023-05-29T08:14:03;4.00;;;1.80;;
57790;SDS011;43621;51.798;21.588;2023-05-29T08:18:05;3.80;;;1.90;;
57790;SDS011;43621;51.798;21.588;2023-05-29T08:22:06;3.50;;;2.40;;
57790;SDS011;43621;51.798;21.588;2023-05-29T08:26:08;4.50;;;2.60;;
57790;SDS011;43621;51.798;21.588;2023-05-29T08:30:11;4.00;;;2.70;;
57790;SDS011;43621;51.798;21.588;2023-05-29T08:34:13;5.20;;;3.60;;
57790;SDS011;43621;51.798;21.588;2023-05-29T08:38:15;3.90;;;3.60;;
57790;SDS011;43621;51.798;21.588;2023-05-29T08:46:23;6.00;;;5.10;;
57790;SDS011;43621;51.798;21.588;2023-05-29T08:50:27;6.20;;;5.60;;
57790;SDS011;43621;51.798;21.588;2023-05-29T08:54:30;8.00;;;7.40;;
57790;SDS011;43621;51.798;21.588;2023-05-29T08:58:33;9.20;;;8.50;;
57790;SDS011;43621;51.798;21.588;2023-05-29T09:02:35;10.50;;;9.90;;
57790;SDS011;43621;51.798;21.588;2023-05-29T09:06:38;11.00;;;10.50;;
57790;SDS011;43621;51.798;21.588;2023-05-29T09:10:42;11.50;;;10.90;;
57790;SDS011;43621;51.798;21.588;2023-05-29T09:14:47;12.10;;;11.30;;
57790;SDS011;43621;51.798;21.588;2023-05-29T09:18:49;12.10;;;11.20;;
57790;SDS011;43621;51.798;21.588;2023-05-29T09:26:59;13.00;;;12.20;;
57790;SDS011;43621;51.798;21.588;2023-05-29T09:31:02;12.10;;;11.50;;
57790;SDS011;43621;51.798;21.588;2023-05-29T09:35:16;12.10;;;11.30;;
57790;SDS011;43621;51.798;21.588;2023-05-29T09:39:22;10.00;;;9.40;;
57790;SDS011;43621;51.798;21.588;2023-05-29T09:43:23;9.00;;;8.50;;
57790;SDS011;43621;51.798;21.588;2023-05-29T09:47:25;8.50;;;8.00;;
57790;SDS011;43621;51.798;21.588;2023-05-29T09:51:35;8.00;;;7.40;;
57790;SDS011;43621;51.798;21.588;2023-05-29T09:55:37;8.00;;;7.50;;
57790;SDS011;43621;51.798;21.588;2023-05-29T09:59:40;8.50;;;7.90;;
57790;SDS011;43621;51.798;21.588;2023-05-29T10:03:46;7.90;;;7.40;;
57790;SDS011;43621;51.798;21.588;2023-05-29T10:07:49;8.70;;;8.20;;
57790;SDS011;43621;51.798;21.588;2023-05-29T10:11:54;8.80;;;8.20;;
57790;SDS011;43621;51.798;21.588;2023-05-29T10:16:01;9.60;;;8.70;;
57790;SDS011;43621;51.798;21.588;2023-05-29T10:20:05;10.10;;;9.10;;
57790;SDS011;43621;51.798;21.588;2023-05-29T10:24:10;10.50;;;9.70;;
57790;SDS011;43621;51.798;21.588;2023-05-29T10:28:13;11.00;;;10.30;;
57790;SDS011;43621;51.798;21.588;2023-05-29T10:36:38;13.20;;;12.50;;
57790;SDS011;43621;51.798;21.588;2023-05-29T10:40:46;13.80;;;13.10;;
57790;SDS011;43621;51.798;21.588;2023-05-29T10:44:47;14.30;;;13.60;;
57790;SDS011;43621;51.798;21.588;2023-05-29T10:48:49;14.90;;;14.10;;
57790;SDS011;43621;51.798;21.588;2023-05-29T10:52:51;14.90;;;14.10;;
57790;SDS011;43621;51.798;21.588;2023-05-29T10:56:56;14.50;;;13.70;;
57790;SDS011;43621;51.798;21.588;2023-05-29T11:01:03;10.70;;;9.90;;
57790;SDS011;43621;51.798;21.588;2023-05-29T11:05:05;6.20;;;5.80;;
57790;SDS011;43621;51.798;21.588;2023-05-29T11:13:52;4.80;;;3.40;;
57790;SDS011;43621;51.798;21.588;2023-05-29T11:17:55;4.00;;;2.60;;
57790;SDS011;43621;51.798;21.588;2023-05-29T11:22:13;3.10;;;2.20;;
57790;SDS011;43621;51.798;21.588;2023-05-29T11:26:26;3.50;;;2.20;;
57790;SDS011;43621;51.798;21.588;2023-05-29T11:30:28;3.40;;;2.00;;
57790;SDS011;43621;51.798;21.588;2023-05-29T11:34:31;5.90;;;2.20;;
57790;SDS011;43621;51.798;21.588;2023-05-29T11:38:34;5.20;;;1.70;;
57790;SDS011;43621;51.798;21.588;2023-05-29T11:42:40;3.70;;;2.10;;
57790;SDS011;43621;51.798;21.588;2023-05-29T11:46:46;4.90;;;1.70;;
57790;SDS011;43621;51.798;21.588;2023-05-29T11:50:48;6.30;;;2.10;;
57790;SDS011;43621;51.798;21.588;2023-05-29T11:54:50;4.50;;;2.50;;
57790;SDS011;43621;51.798;21.588;2023-05-29T11:58:58;6.80;;;2.20;;
57790;SDS011;43621;51.798;21.588;2023-05-29T12:03:21;3.60;;;2.00;;
57790;SDS011;43621;51.798;21.588;2023-05-29T12:07:25;3.20;;;2.20;;
57790;SDS011;43621;51.798;21.588;2023-05-29T12:11:28;5.40;;;2.40;;
57790;SDS011;43621;51.798;21.588;2023-05-29T12:15:30;6.30;;;2.20;;
57790;SDS011;43621;51.798;21.588;2023-05-29T12:19:32;5.70;;;2.20;;
57790;SDS011;43621;51.798;21.588;2023-05-29T12:23:34;4.40;;;2.00;;
57790;SDS011;43621;51.798;21.588;2023-05-29T12:27:37;5.10;;;2.10;;
57790;SDS011;43621;51.798;21.588;2023-05-29T12:31:43;5.80;;;2.30;;
57790;SDS011;43621;51.798;21.588;2023-05-29T12:35:45;9.70;;;2.40;;
57790;SDS011;43621;51.798;21.588;2023-05-29T12:40:08;5.40;;;1.90;;
57790;SDS011;43621;51.798;21.588;2023-05-29T12:44:21;3.40;;;1.60;;
57790;SDS011;43621;51.798;21.588;2023-05-29T12:48:27;4.50;;;2.00;;
57790;SDS011;43621;51.798;21.588;2023-05-29T12:52:29;3.70;;;2.10;;
57790;SDS011;43621;51.798;21.588;2023-05-29T12:56:30;3.60;;;1.90;;
57790;SDS011;43621;51.798;21.588;2023-05-29T13:00:36;4.10;;;1.70;;
57790;SDS011;43621;51.798;21.588;2023-05-29T13:04:41;6.40;;;1.80;;
57790;SDS011;43621;51.798;21.588;2023-05-29T13:08:43;2.40;;;1.80;;
57790;SDS011;43621;51.798;21.588;2023-05-29T13:12:45;3.30;;;1.70;;
57790;SDS011;43621;51.798;21.588;2023-05-29T13:16:48;5.20;;;2.00;;
57790;SDS011;43621;51.798;21.588;2023-05-29T13:20:50;3.10;;;1.60;;
57790;SDS011;43621;51.798;21.588;2023-05-29T13:24:51;4.00;;;1.50;;
57790;SDS011;43621;51.798;21.588;2023-05-29T13:28:53;5.20;;;1.80;;
57790;SDS011;43621;51.798;21.588;2023-05-29T13:32:55;5.30;;;1.80;;
57790;SDS011;43621;51.798;21.588;2023-05-29T13:36:57;3.30;;;2.10;;
57790;SDS011;43621;51.798;21.588;2023-05-29T13:40:59;4.10;;;2.20;;
57790;SDS011;43621;51.798;21.588;2023-05-29T13:45:01;6.00;;;1.80;;
57790;SDS011;43621;51.798;21.588;2023-05-29T13:49:03;3.40;;;1.70;;
57790;SDS011;43621;51.798;21.588;2023-05-29T13:53:05;6.50;;;1.90;;
57790;SDS011;43621;51.798;21.588;2023-05-29T13:57:07;6.80;;;2.00;;
57790;SDS011;43621;51.798;21.588;2023-05-29T14:01:08;5.00;;;1.70;;
57790;SDS011;43621;51.798;21.588;2023-05-29T14:05:10;5.30;;;2.10;;
57790;SDS011;43621;51.798;21.588;2023-05-29T14:09:12;3.90;;;2.20;;
57790;SDS011;43621;51.798;21.588;2023-05-29T14:13:14;3.10;;;1.70;;
57790;SDS011;43621;51.798;21.588;2023-05-29T14:17:16;5.20;;;1.70;;
57790;SDS011;43621;51.798;21.588;2023-05-29T14:21:18;5.60;;;1.80;;
57790;SDS011;43621;51.798;21.588;2023-05-29T14:25:22;7.20;;;2.30;;
57790;SDS011;43621;51.798;21.588;2023-05-29T14:29:24;3.60;;;1.90;;
57790;SDS011;43621;51.798;21.588;2023-05-29T14:33:26;4.10;;;1.50;;
57790;SDS011;43621;51.798;21.588;2023-05-29T14:37:27;3.10;;;1.70;;
57790;SDS011;43621;51.798;21.588;2023-05-29T14:41:29;4.70;;;1.90;;
57790;SDS011;43621;51.798;21.588;2023-05-29T14:45:31;4.50;;;1.90;;
57790;SDS011;43621;51.798;21.588;2023-05-29T14:49:33;4.50;;;1.90;;
57790;SDS011;43621;51.798;21.588;2023-05-29T14:53:35;6.00;;;1.90;;
57790;SDS011;43621;51.798;21.588;2023-05-29T14:57:37;9.80;;;2.00;;
57790;SDS011;43621;51.798;21.588;2023-05-29T15:01:39;7.80;;;1.60;;
57790;SDS011;43621;51.798;21.588;2023-05-29T15:05:41;6.20;;;2.80;;
57790;SDS011;43621;51.798;21.588;2023-05-29T15:09:42;3.30;;;1.80;;
57790;SDS011;43621;51.798;21.588;2023-05-29T15:13:44;6.60;;;2.90;;
57790;SDS011;43621;51.798;21.588;2023-05-29T15:17:53;4.50;;;2.00;;
57790;SDS011;43621;51.798;21.588;2023-05-29T15:22:25;3.30;;;2.00;;
57790;SDS011;43621;51.798;21.588;2023-05-29T15:26:27;6.20;;;1.80;;
57790;SDS011;43621;51.798;21.588;2023-05-29T15:30:29;7.20;;;2.00;;
57790;SDS011;43621;51.798;21.588;2023-05-29T15:34:30;3.90;;;1.60;;
57790;SDS011;43621;51.798;21.588;2023-05-29T15:38:32;4.90;;;1.80;;
57790;SDS011;43621;51.798;21.588;2023-05-29T15:42:34;2.60;;;1.70;;
57790;SDS011;43621;51.798;21.588;2023-05-29T15:46:36;5.10;;;1.90;;
57790;SDS011;43621;51.798;21.588;2023-05-29T15:50:38;6.80;;;1.70;;
57790;SDS011;43621;51.798;21.588;2023-05-29T15:54:40;6.10;;;2.10;;
57790;SDS011;43621;51.798;21.588;2023-05-29T15:58:44;4.80;;;1.90;;
57790;SDS011;43621;51.798;21.588;2023-05-29T16:02:46;4.20;;;1.80;;
57790;SDS011;43621;51.798;21.588;2023-05-29T16:06:47;4.80;;;1.90;;
57790;SDS011;43621;51.798;21.588;2023-05-29T16:10:49;6.30;;;3.00;;
57790;SDS011;43621;51.798;21.588;2023-05-29T16:14:51;7.70;;;2.70;;
57790;SDS011;43621;51.798;21.588;2023-05-29T16:18:53;3.70;;;1.90;;
57790;SDS011;43621;51.798;21.588;2023-05-29T16:22:55;4.60;;;1.90;;
57790;SDS011;43621;51.798;21.588;2023-05-29T16:26:57;10.10;;;2.50;;
57790;SDS011;43621;51.798;21.588;2023-05-29T16:30:59;5.30;;;2.30;;
57790;SDS011;43621;51.798;21.588;2023-05-29T16:35:02;7.70;;;1.80;;
57790;SDS011;43621;51.798;21.588;2023-05-29T16:39:04;8.60;;;2.00;;
57790;SDS011;43621;51.798;21.588;2023-05-29T16:43:06;6.30;;;2.20;;
57790;SDS011;43621;51.798;21.588;2023-05-29T16:47:09;4.90;;;1.90;;
57790;SDS011;43621;51.798;21.588;2023-05-29T16:51:11;6.00;;;2.00;;
57790;SDS011;43621;51.798;21.588;2023-05-29T16:55:13;9.60;;;2.70;;
57790;SDS011;43621;51.798;21.588;2023-05-29T16:59:15;5.60;;;2.00;;
57790;SDS011;43621;51.798;21.588;2023-05-29T17:03:17;14.80;;;3.10;;
57790;SDS011;43621;51.798;21.588;2023-05-29T17:07:19;7.40;;;3.00;;
57790;SDS011;43621;51.798;21.588;2023-05-29T17:11:21;10.80;;;4.20;;
57790;SDS011;43621;51.798;21.588;2023-05-29T17:15:23;22.70;;;13.20;;
57790;SDS011;43621;51.798;21.588;2023-05-29T17:19:25;42.30;;;29.30;;
57790;SDS011;43621;51.798;21.588;2023-05-29T17:23:27;15.80;;;8.10;;
57790;SDS011;43621;51.798;21.588;2023-05-29T17:27:29;26.20;;;5.20;;
57790;SDS011;43621;51.798;21.588;2023-05-29T17:31:31;13.10;;;3.70;;
57790;SDS011;43621;51.798;21.588;2023-05-29T17:35:32;9.10;;;3.00;;
57790;SDS011;43621;51.798;21.588;2023-05-29T17:39:34;12.10;;;2.90;;
57790;SDS011;43621;51.798;21.588;2023-05-29T17:43:36;4.70;;;2.40;;
57790;SDS011;43621;51.798;21.588;2023-05-29T17:47:39;8.80;;;3.20;;
57790;SDS011;43621;51.798;21.588;2023-05-29T17:51:41;7.40;;;3.20;;
57790;SDS011;43621;51.798;21.588;2023-05-29T17:55:43;22.40;;;14.20;;
57790;SDS011;43621;51.798;21.588;2023-05-29T17:59:45;13.30;;;8.10;;
57790;SDS011;43621;51.798;21.588;2023-05-29T18:03:46;7.60;;;4.30;;
57790;SDS011;43621;51.798;21.588;2023-05-29T18:07:48;4.90;;;2.70;;
57790;SDS011;43621;51.798;21.588;2023-05-29T18:11:50;9.70;;;4.90;;
57790;SDS011;43621;51.798;21.588;2023-05-29T18:15:52;13.60;;;4.00;;
57790;SDS011;43621;51.798;21.588;2023-05-29T18:19:54;57.70;;;27.10;;
57790;SDS011;43621;51.798;21.588;2023-05-29T18:23:55;17.80;;;9.40;;
57790;SDS011;43621;51.798;21.588;2023-05-29T18:27:57;13.20;;;5.20;;
57790;SDS011;43621;51.798;21.588;2023-05-29T18:31:59;6.80;;;3.50;;
57790;SDS011;43621;51.798;21.588;2023-05-29T18:36:02;10.00;;;3.70;;
57790;SDS011;43621;51.798;21.588;2023-05-29T18:40:05;7.70;;;3.00;;
57790;SDS011;43621;51.798;21.588;2023-05-29T18:44:07;8.40;;;3.30;;
57790;SDS011;43621;51.798;21.588;2023-05-29T18:48:09;6.50;;;3.40;;
57790;SDS011;43621;51.798;21.588;2023-05-29T18:52:11;5.00;;;3.10;;
57790;SDS011;43621;51.798;21.588;2023-05-29T18:56:13;6.10;;;3.30;;
57790;SDS011;43621;51.798;21.588;2023-05-29T19:00:14;8.70;;;3.50;;
57790;SDS011;43621;51.798;21.588;2023-05-29T19:04:17;9.90;;;4.50;;
57790;SDS011;43621;51.798;21.588;2023-05-29T19:08:18;12.70;;;5.90;;
57790;SDS011;43621;51.798;21.588;2023-05-29T19:12:20;9.60;;;5.30;;
57790;SDS011;43621;51.798;21.588;2023-05-29T19:16:22;9.90;;;5.00;;
57790;SDS011;43621;51.798;21.588;2023-05-29T19:20:24;10.60;;;4.40;;
57790;SDS011;43621;51.798;21.588;2023-05-29T19:24:26;22.60;;;11.40;;
57790;SDS011;43621;51.798;21.588;2023-05-29T19:28:27;37.30;;;17.80;;
57790;SDS011;43621;51.798;21.588;2023-05-29T19:32:29;32.60;;;17.70;;
57790;SDS011;43621;51.798;21.588;2023-05-29T19:36:33;38.80;;;17.50;;
57790;SDS011;43621;51.798;21.588;2023-05-29T19:40:35;22.00;;;11.70;;
57790;SDS011;43621;51.798;21.588;2023-05-29T19:44:39;13.30;;;7.80;;
57790;SDS011;43621;51.798;21.588;2023-05-29T19:48:41;17.80;;;7.50;;
57790;SDS011;43621;51.798;21.588;2023-05-29T19:52:42;19.70;;;7.20;;
57790;SDS011;43621;51.798;21.588;2023-05-29T19:56:44;37.20;;;22.60;;
57790;SDS011;43621;51.798;21.588;2023-05-29T20:00:46;22.60;;;13.90;;
57790;SDS011;43621;51.798;21.588;2023-05-29T20:04:50;13.60;;;9.10;;
57790;SDS011;43621;51.798;21.588;2023-05-29T20:08:51;36.60;;;19.10;;
57790;SDS011;43621;51.798;21.588;2023-05-29T20:12:53;25.90;;;16.00;;
57790;SDS011;43621;51.798;21.588;2023-05-29T20:16:55;23.90;;;13.50;;
57790;SDS011;43621;51.798;21.588;2023-05-29T20:20:57;28.20;;;17.50;;
57790;SDS011;43621;51.798;21.588;2023-05-29T20:24:59;24.10;;;16.50;;
57790;SDS011;43621;51.798;21.588;2023-05-29T20:29:01;23.10;;;14.10;;
57790;SDS011;43621;51.798;21.588;2023-05-29T20:33:03;19.00;;;13.70;;
57790;SDS011;43621;51.798;21.588;2023-05-29T20:37:05;15.50;;;11.00;;
57790;SDS011;43621;51.798;21.588;2023-05-29T20:41:08;14.20;;;9.30;;
57790;SDS011;43621;51.798;21.588;2023-05-29T20:45:10;17.10;;;7.90;;
57790;SDS011;43621;51.798;21.588;2023-05-29T20:49:13;13.80;;;7.90;;
57790;SDS011;43621;51.798;21.588;2023-05-29T20:53:15;20.10;;;8.00;;
57790;SDS011;43621;51.798;21.588;2023-05-29T20:57:16;17.00;;;9.80;;
57790;SDS011;43621;51.798;21.588;2023-05-29T21:01:18;18.10;;;11.80;;
57790;SDS011;43621;51.798;21.588;2023-05-29T21:05:20;16.70;;;12.00;;
57790;SDS011;43621;51.798;21.588;2023-05-29T21:09:22;17.00;;;11.00;;
57790;SDS011;43621;51.798;21.588;2023-05-29T21:13:24;12.50;;;6.70;;
57790;SDS011;43621;51.798;21.588;2023-05-29T21:17:26;9.50;;;5.50;;
57790;SDS011;43621;51.798;21.588;2023-05-29T21:21:27;10.10;;;5.30;;
57790;SDS011;43621;51.798;21.588;2023-05-29T21:25:29;9.80;;;4.80;;
57790;SDS011;43621;51.798;21.588;2023-05-29T21:29:31;7.50;;;4.60;;
57790;SDS011;43621;51.798;21.588;2023-05-29T21:33:33;12.40;;;5.20;;
57790;SDS011;43621;51.798;21.588;2023-05-29T21:37:35;12.30;;;5.50;;
57790;SDS011;43621;51.798;21.588;2023-05-29T21:41:37;13.10;;;6.00;;
57790;SDS011;43621;51.798;21.588;2023-05-29T21:45:39;11.60;;;5.80;;
57790;SDS011;43621;51.798;21.588;2023-05-29T21:49:41;13.80;;;6.30;;
57790;SDS011;43621;51.798;21.588;2023-05-29T21:53:43;11.20;;;5.70;;
57790;SDS011;43621;51.798;21.588;2023-05-29T21:57:44;13.10;;;5.40;;
57790;SDS011;43621;51.798;21.588;2023-05-29T22:01:46;12.10;;;5.90;;
57790;SDS011;43621;51.798;21.588;2023-05-29T22:05:50;13.10;;;4.70;;
57790;SDS011;43621;51.798;21.588;2023-05-29T22:09:52;10.50;;;5.80;;
57790;SDS011;43621;51.798;21.588;2023-05-29T22:13:53;9.40;;;5.80;;
57790;SDS011;43621;51.798;21.588;2023-05-29T22:17:55;14.20;;;6.30;;
57790;SDS011;43621;51.798;21.588;2023-05-29T22:21:58;10.80;;;5.50;;
57790;SDS011;43621;51.798;21.588;2023-05-29T22:26:00;11.70;;;5.10;;
57790;SDS011;43621;51.798;21.588;2023-05-29T22:30:03;11.10;;;5.20;;
57790;SDS011;43621;51.798;21.588;2023-05-29T22:34:07;12.80;;;5.40;;
57790;SDS011;43621;51.798;21.588;2023-05-29T22:38:09;10.50;;;5.20;;
57790;SDS011;43621;51.798;21.588;2023-05-29T22:42:11;8.30;;;4.20;;
57790;SDS011;43621;51.798;21.588;2023-05-29T22:46:12;9.60;;;4.30;;
57790;SDS011;43621;51.798;21.588;2023-05-29T22:50:14;10.30;;;3.80;;
57790;SDS011;43621;51.798;21.588;2023-05-29T22:54:16;6.50;;;3.70;;
57790;SDS011;43621;51.798;21.588;2023-05-29T22:58:18;11.20;;;4.50;;
57790;SDS011;43621;51.798;21.588;2023-05-29T23:02:20;9.60;;;4.70;;
57790;SDS011;43621;51.798;21.588;2023-05-29T23:06:21;5.70;;;3.20;;
57790;SDS011;43621;51.798;21.588;2023-05-29T23:10:23;11.50;;;4.80;;
57790;SDS011;43621;51.798;21.588;2023-05-29T23:14:25;6.30;;;3.60;;
57790;SDS011;43621;51.798;21.588;2023-05-29T23:18:27;11.50;;;4.40;;
57790;SDS011;43621;51.798;21.588;2023-05-29T23:22:29;6.80;;;3.60;;
57790;SDS011;43621;51.798;21.588;2023-05-29T23:26:30;8.90;;;3.30;;
57790;SDS011;43621;51.798;21.588;2023-05-29T23:30:32;10.30;;;3.50;;
57790;SDS011;43621;51.798;21.588;2023-05-29T23:34:34;8.10;;;3.40;;
57790;SDS011;43621;51.798;21.588;2023-05-29T23:38:36;8.70;;;3.10;;
57790;SDS011;43621;51.798;21.588;2023-05-29T23:42:37;9.70;;;3.40;;
57790;SDS011;43621;51.798;21.588;2023-05-29T23:46:39;8.90;;;3.40;;
57790;SDS011;43621;51.798;21.588;2023-05-29T23:50:42;11.80;;;3.60;;
57790;SDS011;43621;51.798;21.588;2023-05-29T23:54:44;10.40;;;4.10;;
57790;SDS011;43621;51.798;21.588;2023-05-29T23:58:46;7.90;;;3.40;;
